^^
Station Historical Data
Daily Summary for January 04, 2018 Units:  English    Metric   Both
« Previous Day
Next Day »
Daily Weekly Monthly Yearly Custom
  High: Low: Average:
Temperature: TemperatureF °F 68.4 °F 87.3 °F
Dew Point: DewpointF °F 23.0 °F 30.1 °F
Humidity: Humidity% 6% 14%
Wind Speed: WindSpeedMPHmph 0.0mph 3.9mph
Wind Gust: WindSpeedGustMPHmph - -
Wind- - SW
Pressure: PressureIn in 29.64 in -
Precipitation: 0.00 in    
Historical Graphs
 
 
Tabular Data for January 04, 2018
Time Temperature Dew Point Pressure Wind Wind Speed Wind Gust Humidity Rainfall Rate (Hourly) solar Conditions
TemperatureF °F DewpointF °F PressureIn in Calm     Humidity% HourlyPrecipIn in SolarRadiationWatts/m^2 W/m2 Conditions
00:11 83.7 °F 31.1 °F 29.79 in WSW 6.9 mph 11.0 mph 15% 0.00 in 0.0 W/m2
00:16 83.5 °F 30.9 °F 29.79 in WSW 10.1 mph 11.0 mph 15% 0.00 in 0.0 W/m2
00:21 83.5 °F 30.9 °F 29.79 in SW 8.9 mph 12.0 mph 15% 0.00 in 0.0 W/m2
00:36 83.1 °F 30.7 °F 29.78 in SW 11.0 mph 15.0 mph 15% 0.00 in 0.0 W/m2
00:41 83.1 °F 30.7 °F 29.79 in SW 10.1 mph 13.0 mph 15% 0.00 in 0.0 W/m2
00:46 83.1 °F 30.7 °F 29.79 in SSW 15.0 mph 15.0 mph 15% 0.00 in 0.0 W/m2
00:56 82.8 °F 30.4 °F 29.78 in SSW 11.0 mph 14.0 mph 15% 0.00 in 0.0 W/m2
01:06 82.8 °F 30.4 °F 29.78 in SSW 10.1 mph 14.0 mph 15% 0.00 in 0.0 W/m2
01:11 82.2 °F 30.0 °F 29.78 in SSW 10.1 mph 11.0 mph 15% 0.00 in 0.0 W/m2
01:16 81.9 °F 29.7 °F 29.78 in SSW 12.1 mph 14.0 mph 15% 0.00 in 0.0 W/m2
01:21 81.7 °F 29.5 °F 29.78 in SSW 8.1 mph 11.0 mph 15% 0.00 in 0.0 W/m2
01:31 81.3 °F 30.9 °F 29.78 in SSW 8.1 mph 13.0 mph 16% 0.00 in 0.0 W/m2
01:36 81.3 °F 30.9 °F 29.78 in SSW 8.9 mph 12.0 mph 16% 0.00 in 0.0 W/m2
01:41 81.1 °F 29.1 °F 29.78 in SSW 8.9 mph 11.0 mph 15% 0.00 in 0.0 W/m2
01:46 80.8 °F 28.8 °F 29.78 in SSW 8.1 mph 9.0 mph 15% 0.00 in 0.0 W/m2
02:02 80.4 °F 30.2 °F 29.78 in SSW 6.9 mph 9.0 mph 16% 0.00 in 0.0 W/m2
02:27 77.7 °F 29.5 °F 29.77 in SSW 4.0 mph 5.0 mph 17% 0.00 in 0.0 W/m2
02:37 77.5 °F 29.3 °F 29.77 in SSW 2.9 mph 5.0 mph 17% 0.00 in 0.0 W/m2
02:42 77.7 °F 29.5 °F 29.77 in SSW 4.9 mph 6.0 mph 17% 0.00 in 0.0 W/m2
02:52 77.7 °F 29.5 °F 29.76 in SSW 6.9 mph 8.0 mph 17% 0.00 in 0.0 W/m2
02:57 77.7 °F 29.5 °F 29.76 in SSW 6.9 mph 8.0 mph 17% 0.00 in 0.0 W/m2
03:07 77.4 °F 29.1 °F 29.76 in SSW 8.1 mph 8.1 mph 17% 0.00 in 0.0 W/m2
03:18 76.6 °F 30.0 °F 29.76 in SSW 6.0 mph 8.0 mph 18% 0.00 in 0.0 W/m2
03:28 76.6 °F 30.0 °F 29.76 in SSW 6.9 mph 8.0 mph 18% 0.00 in 0.0 W/m2
03:43 76.8 °F 30.0 °F 29.76 in Calm     18% 0.00 in 0.0 W/m2
03:53 76.6 °F 30.0 °F 29.76 in SSW 6.0 mph 7.0 mph 18% 0.00 in 0.0 W/m2
03:58 76.3 °F 29.7 °F 29.76 in SSW 4.9 mph 7.0 mph 18% 0.00 in 0.0 W/m2
04:03 75.9 °F 29.3 °F 29.76 in SSW 4.0 mph 6.0 mph 18% 0.00 in 0.0 W/m2
04:08 75.4 °F 28.9 °F 29.76 in SSW 6.0 mph 6.0 mph 18% 0.00 in 0.0 W/m2
04:14 75.2 °F 30.0 °F 29.76 in SSW 6.0 mph 6.0 mph 19% 0.00 in 0.0 W/m2
04:19 75.0 °F 30.0 °F 29.76 in SSW 4.0 mph 5.0 mph 19% 0.00 in 0.0 W/m2
04:29 73.9 °F 29.1 °F 29.76 in SSW 0.9 mph 3.0 mph 19% 0.00 in 0.0 W/m2
04:34 73.4 °F 28.6 °F 29.76 in Calm     19% 0.00 in 0.0 W/m2
04:39 72.9 °F 29.5 °F 29.76 in Calm     20% 0.00 in 0.0 W/m2
04:44 72.5 °F 29.1 °F 29.76 in Calm     20% 0.00 in 0.0 W/m2
04:49 71.8 °F 28.6 °F 29.76 in Calm     20% 0.00 in 0.0 W/m2
04:54 71.4 °F 28.2 °F 29.76 in Calm     20% 0.00 in 0.0 W/m2
04:59 71.2 °F 28.0 °F 29.77 in Calm     20% 0.00 in 0.0 W/m2
05:04 70.9 °F 28.9 °F 29.77 in Calm     21% 0.00 in 0.0 W/m2
05:09 70.3 °F 29.7 °F 29.77 in Calm     22% 0.00 in 0.0 W/m2
05:19 70.0 °F 29.3 °F 29.77 in Calm     22% 0.00 in 0.0 W/m2
05:25 69.6 °F 30.2 °F 29.77 in Calm     23% 0.00 in 0.0 W/m2
05:46 68.4 °F 29.1 °F 29.78 in Calm     23% 0.00 in 0.0 W/m2
05:57 68.5 °F 28.2 °F 29.78 in Calm     22% 0.00 in 0.0 W/m2
06:01 68.5 °F 29.3 °F 29.78 in Calm     23% 0.00 in 5.0 W/m2
06:20 68.4 °F 30.2 °F 29.78 in Calm     24% 0.00 in 14.0 W/m2
06:37 70.3 °F 29.7 °F 29.79 in Calm     22% 0.00 in 56.0 W/m2
06:42 71.1 °F 30.2 °F 29.79 in Calm     22% 0.00 in 72.0 W/m2
06:58 71.8 °F 30.9 °F 29.79 in Calm     22% 0.00 in 109.0 W/m2
07:13 73.9 °F 31.5 °F 29.80 in Calm     21% 0.00 in 172.0 W/m2
07:23 76.3 °F 32.2 °F 29.80 in Calm     20% 0.00 in 237.0 W/m2
07:34 77.7 °F 32.2 °F 29.80 in Calm     19% 0.00 in 278.0 W/m2
08:10 81.1 °F 32.2 °F 29.81 in Calm     17% 0.00 in 380.0 W/m2
08:20 82.2 °F 31.6 °F 29.81 in Calm     16% 0.00 in 434.0 W/m2
08:35 83.7 °F 31.1 °F 29.81 in SSW 4.9 mph 7.0 mph 15% 0.00 in 485.0 W/m2
08:50 84.9 °F 30.4 °F 29.80 in Calm   4.0 mph 14% 0.00 in 534.0 W/m2
09:06 86.4 °F 31.5 °F 29.80 in Calm     14% 0.00 in 587.0 W/m2
09:21 88.0 °F 30.9 °F 29.80 in Calm     13% 0.00 in 636.0 W/m2
09:34 89.4 °F 30.2 °F 29.80 in Calm     12% 0.00 in 670.0 W/m2
09:42 90.7 °F 31.1 °F 29.80 in Calm     12% 0.00 in 701.0 W/m2
09:55 91.8 °F 32.0 °F 29.80 in Calm     12% 0.00 in 728.0 W/m2
10:02 93.0 °F 32.9 °F 29.80 in Calm     12% 0.00 in 754.0 W/m2
10:17 94.5 °F 36.0 °F 29.80 in NE 4.0 mph 12.0 mph 13% 0.00 in 772.0 W/m2
10:32 94.1 °F 35.8 °F 29.80 in NNE 4.9 mph 7.0 mph 13% 0.00 in 809.0 W/m2
10:42 95.4 °F 36.7 °F 29.80 in NNE 10.1 mph 10.1 mph 13% 0.00 in 835.0 W/m2
11:02 95.5 °F 36.9 °F 29.79 in North 0.9 mph 12.0 mph 13% 0.00 in 881.0 W/m2
11:13 96.3 °F 37.4 °F 29.79 in North 10.1 mph 14.0 mph 13% 0.00 in 896.0 W/m2
11:23 97.0 °F 37.9 °F 29.79 in NNW 11.0 mph 18.0 mph 13% 0.00 in 923.0 W/m2
11:44 98.2 °F 40.8 °F 29.79 in North 11.0 mph 11.0 mph 14% 0.00 in 946.0 W/m2
12:00 98.8 °F 41.4 °F 29.78 in North 11.0 mph 18.0 mph 14% 0.00 in 962.0 W/m2
12:08 99.5 °F 39.9 °F 29.78 in NNW 8.9 mph 18.0 mph 13% 0.00 in 972.0 W/m2
12:23 100.0 °F 38.3 °F 29.77 in NNW 11.0 mph 15.0 mph 12% 0.00 in 984.0 W/m2
12:37 100.2 °F 36.3 °F 29.77 in North 8.9 mph 16.0 mph 11% 0.00 in 997.0 W/m2
12:47 100.6 °F 36.5 °F 29.76 in Calm   13.0 mph 11% 0.00 in 993.0 W/m2
13:09 100.8 °F 31.6 °F 29.75 in North 8.1 mph 17.0 mph 9% 0.00 in 988.0 W/m2
13:24 102.0 °F 29.7 °F 29.75 in Calm     8% 0.00 in 988.0 W/m2
13:35 101.5 °F 29.3 °F 29.74 in Calm   6.0 mph 8% 0.00 in 984.0 W/m2
13:49 102.6 °F 32.9 °F 29.74 in NNE 0.9 mph 5.0 mph 9% 0.00 in 972.0 W/m2
13:59 102.6 °F 30.0 °F 29.74 in North 6.0 mph 14.0 mph 8% 0.00 in 956.0 W/m2
14:15 103.1 °F 30.4 °F 29.73 in North 4.0 mph 9.0 mph 8% 0.00 in 939.0 W/m2
14:30 102.6 °F 30.0 °F 29.72 in NNE 0.9 mph 11.0 mph 8% 0.00 in 918.0 W/m2
14:45 103.6 °F 27.5 °F 29.72 in North 4.0 mph 11.0 mph 7% 0.00 in 888.0 W/m2
15:06 103.1 °F 23.5 °F 29.71 in North 2.0 mph 9.0 mph 6% 0.00 in 863.0 W/m2
15:16 103.8 °F 24.1 °F 29.70 in North 8.1 mph 9.0 mph 6% 0.00 in 830.0 W/m2
15:31 103.3 °F 23.5 °F 29.69 in NNW 6.0 mph 7.0 mph 6% 0.00 in 788.0 W/m2
15:46 103.8 °F 27.7 °F 29.69 in NW 6.9 mph 15.0 mph 7% 0.00 in 751.0 W/m2
16:01 104.4 °F 28.0 °F 29.69 in NW 2.0 mph 11.0 mph 7% 0.00 in 703.0 W/m2
16:16 103.8 °F 27.7 °F 29.68 in NW 6.9 mph 11.0 mph 7% 0.00 in 664.0 W/m2
16:31 103.6 °F 27.5 °F 29.67 in NW 4.0 mph 8.0 mph 7% 0.00 in 626.0 W/m2
16:46 103.6 °F 27.5 °F 29.66 in NW 6.9 mph 7.0 mph 7% 0.00 in 580.0 W/m2
17:01 103.3 °F 27.3 °F 29.65 in West 4.9 mph 6.0 mph 7% 0.00 in 531.0 W/m2
17:22 103.5 °F 27.5 °F 29.65 in West 6.9 mph 10.0 mph 7% 0.00 in 482.0 W/m2
17:32 103.3 °F 30.6 °F 29.65 in West 2.0 mph 6.0 mph 8% 0.00 in 425.0 W/m2
17:47 103.1 °F 30.4 °F 29.64 in Calm   8.0 mph 8% 0.00 in 364.0 W/m2
18:02 103.5 °F 27.5 °F 29.64 in West 2.9 mph 7.0 mph 7% 0.00 in 313.0 W/m2
18:17 103.3 °F 27.3 °F 29.64 in Calm     7% 0.00 in 253.0 W/m2
18:33 103.8 °F 24.1 °F 29.64 in Calm     6% 0.00 in 192.0 W/m2
18:48 103.6 °F 23.9 °F 29.64 in Calm     6% 0.00 in 127.0 W/m2
18:58 102.9 °F 23.4 °F 29.64 in West 0.9 mph 1.0 mph 6% 0.00 in 65.0 W/m2
19:09 102.4 °F 23.0 °F 29.64 in West 2.9 mph 5.0 mph 6% 0.00 in 51.0 W/m2
19:25 101.7 °F 26.2 °F 29.65 in Calm     7% 0.00 in 18.0 W/m2
19:40 101.5 °F 26.1 °F 29.65 in Calm     7% 0.00 in 11.0 W/m2
19:56 100.6 °F 25.3 °F 29.65 in Calm     7% 0.00 in 0.0 W/m2
20:06 98.8 °F 27.3 °F 29.65 in Calm     8% 0.00 in 0.0 W/m2
20:16 97.5 °F 26.4 °F 29.65 in Calm     8% 0.00 in 0.0 W/m2
20:31 95.7 °F 25.0 °F 29.66 in Calm     8% 0.00 in 0.0 W/m2
20:47 94.3 °F 26.8 °F 29.67 in Calm     9% 0.00 in 0.0 W/m2
20:57 93.6 °F 28.8 °F 29.67 in Calm     10% 0.00 in 0.0 W/m2
21:12 94.5 °F 31.8 °F 29.69 in Calm     11% 0.00 in 0.0 W/m2
21:27 95.5 °F 32.7 °F 29.70 in Calm     11% 0.00 in 0.0 W/m2
21:37 97.3 °F 34.0 °F 29.70 in West 6.9 mph 7.0 mph 11% 0.00 in 0.0 W/m2
21:47 94.3 °F 42.8 °F 29.71 in SW 14.1 mph 17.0 mph 17% 0.00 in 0.0 W/m2
21:59 92.3 °F 42.6 °F 29.71 in SSW 11.0 mph 12.0 mph 18% 0.00 in 0.0 W/m2
Canyon Roadhouse, Fishriver Canyon, Namibia
Compliments of Weather Underground - 2.25 mb